Agana Heights, Guam
Current Conditions -  °F | °C
As of 9:54 AM on Tuesday 21 Oct 2014 (Local Time) from PGUM Reporting Station
Scattered Clouds Scattered Clouds  
Wind Chill: 87°   Ceiling: Unl
Heat Index: 96°   Visibility: 10mi
Dew Point: 75°   Wind: 8mph
Humidity: 67%   Direction: 60°ENE
Pressure: 29.89"   Gusts: NA
Location:  13.47°N, 144.74°E
Report Text: PGUM 202354Z 06007KT 10SM SCT026 31/24 A2989 RMK AO2 SLP112 60004 T03060239 10311 20250 51009
Loading
Personal Weather Stations






























Interactive Weather Map New forecast layout! Learn more

10-Day Weather Forecast

Advertisements
Track Severe Weather on mobile